createdAt,value
2022-09-29T00:02:21.396Z,4.95
2022-09-29T00:04:54.014Z,4.43
2022-09-29T00:07:28.116Z,4.82
2022-09-29T00:10:00.968Z,4.72
2022-09-29T00:12:33.627Z,4.85
2022-09-29T00:15:07.495Z,4.95
2022-09-29T00:17:46.557Z,5.55
2022-09-29T00:20:30.962Z,4.95
2022-09-29T00:23:03.898Z,4.90
2022-09-29T00:25:36.465Z,5.07
2022-09-29T00:28:09.084Z,5.15
2022-09-29T00:30:41.643Z,5.15
2022-09-29T00:33:14.240Z,5.10
2022-09-29T00:36:01.667Z,4.50
2022-09-29T00:38:34.940Z,4.50
2022-09-29T00:41:09.100Z,5.18
2022-09-29T00:44:06.905Z,4.93
2022-09-29T00:47:01.658Z,5.53
2022-09-29T00:49:51.738Z,5.28
2022-09-29T00:52:40.576Z,4.45
2022-09-29T00:55:31.874Z,5.07
2022-09-29T00:58:15.638Z,5.15
2022-09-29T01:00:49.210Z,5.05
2022-09-29T01:03:25.828Z,4.45
2022-09-29T01:06:05.844Z,5.47
2022-09-29T01:08:48.194Z,5.75
2022-09-29T01:11:22.786Z,4.97
2022-09-29T01:14:03.480Z,5.28
2022-09-29T01:16:39.455Z,5.35
2022-09-29T01:19:24.553Z,5.00
2022-09-29T01:22:27.030Z,5.55
2022-09-29T01:25:49.618Z,4.20
2022-09-29T01:29:14.617Z,5.68
2022-09-29T01:32:45.248Z,4.88
2022-09-29T01:35:35.890Z,5.45
2022-09-29T01:38:35.905Z,6.13
2022-09-29T01:41:28.504Z,4.57
2022-09-29T01:44:17.795Z,5.30
2022-09-29T01:49:37.064Z,4.80
2022-09-29T01:52:18.562Z,5.00
2022-09-29T01:55:00.457Z,5.10
2022-09-29T01:57:53.172Z,5.70
2022-09-29T02:00:31.744Z,5.85
2022-09-29T02:03:30.344Z,5.50
2022-09-29T02:06:12.690Z,5.63
2022-09-29T02:08:54.990Z,5.15
2022-09-29T02:11:33.091Z,4.82
2022-09-29T02:14:14.784Z,5.28
2022-09-29T02:17:31.547Z,6.10
2022-09-29T02:20:05.597Z,4.88
2022-09-29T02:22:39.214Z,5.45
2022-09-29T02:25:16.320Z,5.18
2022-09-29T02:27:50.851Z,5.30
2022-09-29T02:30:23.417Z,5.68
2022-09-29T02:32:56.121Z,5.93
2022-09-29T02:35:45.497Z,5.95
2022-09-29T02:39:07.288Z,5.95
2022-09-29T02:44:49.067Z,5.65
2022-09-29T02:47:37.364Z,5.95
2022-09-29T02:50:54.014Z,5.93
2022-09-29T02:54:18.467Z,6.05
2022-09-29T02:57:09.932Z,5.45
2022-09-29T02:59:55.683Z,5.80
2022-09-29T03:02:28.415Z,5.43
2022-09-29T03:05:01.776Z,5.78
2022-09-29T03:07:37.251Z,5.78
2022-09-29T03:10:11.658Z,5.13
2022-09-29T03:12:44.482Z,5.57
2022-09-29T03:15:18.287Z,5.32
2022-09-29T03:17:51.125Z,5.75
2022-09-29T03:20:24.671Z,5.38
2022-09-29T03:22:58.302Z,6.25
2022-09-29T03:25:31.024Z,5.97
2022-09-29T03:28:03.768Z,6.22
2022-09-29T03:30:36.386Z,5.45
2022-09-29T03:33:09.010Z,5.82
2022-09-29T03:35:44.462Z,5.45
2022-09-29T03:38:17.340Z,5.57
2022-09-29T03:40:50.070Z,5.65
2022-09-29T03:43:22.853Z,5.30
2022-09-29T03:45:57.947Z,5.43
2022-09-29T03:48:31.560Z,5.53
2022-09-29T03:51:04.541Z,5.40
2022-09-29T03:53:37.660Z,5.38
2022-09-29T03:56:10.360Z,5.53
2022-09-29T03:58:43.190Z,5.03
2022-09-29T04:01:15.872Z,5.60
2022-09-29T04:03:48.773Z,6.05
2022-09-29T04:06:21.465Z,5.50
2022-09-29T04:08:54.074Z,6.07
2022-09-29T04:11:26.720Z,5.40
2022-09-29T04:13:59.377Z,5.43
2022-09-29T04:16:32.499Z,5.80
2022-09-29T04:19:05.265Z,5.40
2022-09-29T04:21:37.866Z,5.68
2022-09-29T04:24:10.622Z,5.85
2022-09-29T04:26:43.277Z,5.30
2022-09-29T04:29:16.009Z,5.78
2022-09-29T04:31:48.697Z,5.97
2022-09-29T04:34:21.286Z,5.50
2022-09-29T04:36:54.042Z,5.50
2022-09-29T04:39:27.131Z,6.05
2022-09-29T04:41:59.671Z,6.30
2022-09-29T05:07:43.015Z,5.82
2022-09-29T05:10:16.044Z,4.95
2022-09-29T05:12:52.104Z,5.90
2022-09-29T05:15:26.101Z,6.00
2022-09-29T05:18:03.074Z,5.70
2022-09-29T05:20:42.812Z,5.55
2022-09-29T05:23:20.098Z,5.82
2022-09-29T05:25:52.988Z,6.20
2022-09-29T05:28:25.747Z,6.22
2022-09-29T05:31:07.589Z,6.03
2022-09-29T05:33:40.696Z,5.90
2022-09-29T05:36:13.644Z,5.60
2022-09-29T05:38:46.351Z,5.50
2022-09-29T05:41:22.634Z,6.40
2022-09-29T05:46:29.683Z,5.60
2022-09-29T05:49:02.469Z,6.63
2022-09-29T05:51:35.607Z,6.00
2022-09-29T05:54:08.248Z,5.72
2022-09-29T05:56:44.481Z,7.15
2022-09-29T05:59:17.986Z,6.53
2022-09-29T06:01:50.635Z,7.55
2022-09-29T06:04:23.176Z,7.07
2022-09-29T06:06:56.436Z,7.18
2022-09-29T06:09:29.231Z,6.10
2022-09-29T06:12:06.071Z,5.90
2022-09-29T06:14:38.607Z,6.75
2022-09-29T06:17:11.099Z,6.53
2022-09-29T06:19:44.901Z,7.13
2022-09-29T06:22:17.651Z,6.88
2022-09-29T06:24:50.225Z,6.35
2022-09-29T06:27:22.943Z,7.28
2022-09-29T06:29:55.455Z,7.55
2022-09-29T06:32:28.206Z,7.00
2022-09-29T06:35:19.503Z,7.18
2022-09-29T06:37:56.403Z,7.10
2022-09-29T06:40:28.858Z,7.25
2022-09-29T06:43:02.929Z,7.50
2022-09-29T06:45:35.504Z,6.88
2022-09-29T06:48:09.927Z,7.97
2022-09-29T06:50:42.517Z,7.18
2022-09-29T06:53:15.074Z,8.05
2022-09-29T06:56:00.829Z,7.68
2022-09-29T06:58:34.004Z,7.20
2022-09-29T07:01:06.915Z,8.63
2022-09-29T07:03:39.669Z,8.40
2022-09-29T07:06:19.667Z,8.38
2022-09-29T07:08:58.890Z,8.20
2022-09-29T07:11:31.673Z,8.25
2022-09-29T07:14:04.226Z,7.28
2022-09-29T07:16:36.791Z,8.38
2022-09-29T07:19:10.279Z,8.00
2022-09-29T07:21:42.846Z,8.07
2022-09-29T07:24:16.586Z,7.85
2022-09-29T07:26:49.056Z,7.10
2022-09-29T07:29:21.596Z,7.68
2022-09-29T07:31:55.361Z,7.50
2022-09-29T07:34:27.992Z,8.02
2022-09-29T07:37:00.450Z,8.27
2022-09-29T07:39:32.928Z,8.48
2022-09-29T07:42:09.178Z,7.97
2022-09-29T07:44:41.969Z,7.25
2022-09-29T07:47:15.108Z,7.53
2022-09-29T07:49:47.742Z,7.82
2022-09-29T07:52:20.243Z,7.78
2022-09-29T07:54:52.776Z,7.35
2022-09-29T07:57:25.372Z,8.10
2022-09-29T07:59:58.502Z,8.25
2022-09-29T08:02:31.172Z,8.40
2022-09-29T08:05:07.540Z,7.57
2022-09-29T08:07:40.346Z,7.45
2022-09-29T08:10:17.659Z,7.25
2022-09-29T08:12:50.467Z,8.15
2022-09-29T08:15:24.119Z,7.63
2022-09-29T08:17:57.733Z,6.50
2022-09-29T08:20:30.270Z,7.18
2022-09-29T08:23:03.022Z,7.50
2022-09-29T08:25:36.627Z,8.02
2022-09-29T08:28:12.143Z,7.55
2022-09-29T08:30:50.689Z,6.70
2022-09-29T08:33:23.681Z,7.50
2022-09-29T08:36:00.745Z,6.95
2022-09-29T08:38:33.596Z,7.03
2022-09-29T08:41:06.558Z,6.70
2022-09-29T08:43:45.127Z,6.97
2022-09-29T08:46:35.927Z,7.68
2022-09-29T08:49:38.555Z,7.03
2022-09-29T08:52:49.912Z,6.78
2022-09-29T08:55:40.160Z,7.07
2022-09-29T08:58:16.934Z,7.18
2022-09-29T09:01:04.164Z,6.95
2022-09-29T09:03:51.529Z,6.85
2022-09-29T09:06:33.215Z,7.57
2022-09-29T09:09:50.424Z,7.68
2022-09-29T09:12:50.445Z,6.25
2022-09-29T09:16:12.073Z,7.55
2022-09-29T09:19:40.492Z,6.32
2022-09-29T09:22:19.403Z,5.55
2022-09-29T09:25:06.237Z,6.30
2022-09-29T09:27:46.186Z,6.03
2022-09-29T09:30:21.539Z,5.90
2022-09-29T09:33:03.326Z,5.05
2022-09-29T09:35:55.972Z,5.05
2022-09-29T09:39:00.855Z,4.55
2022-09-29T09:41:38.214Z,3.90
2022-09-29T09:44:19.500Z,3.72
2022-09-29T09:47:02.824Z,4.53
2022-09-29T09:49:51.838Z,4.68
2022-09-29T09:52:44.852Z,4.72
2022-09-29T09:55:26.823Z,4.53
2022-09-29T09:58:27.150Z,3.72
2022-09-29T10:01:04.729Z,3.67
2022-09-29T10:03:38.170Z,3.80
2022-09-29T10:06:10.805Z,3.55
2022-09-29T10:08:43.489Z,4.35
2022-09-29T10:11:18.964Z,3.30
2022-09-29T10:14:15.020Z,3.50
2022-09-29T10:16:58.930Z,3.15
2022-09-29T10:19:53.419Z,3.20
2022-09-29T10:22:30.675Z,2.78
2022-09-29T10:25:12.401Z,2.60
2022-09-29T10:27:54.846Z,3.10
2022-09-29T10:30:35.839Z,2.80
2022-09-29T10:33:18.907Z,2.85
2022-09-29T10:36:08.753Z,2.92
2022-09-29T10:38:49.287Z,2.08
2022-09-29T10:41:22.353Z,2.80
2022-09-29T10:43:55.127Z,2.90
2022-09-29T10:46:42.752Z,2.17
2022-09-29T10:49:21.974Z,1.90
2022-09-29T10:51:57.320Z,2.20
2022-09-29T10:54:36.206Z,1.92
2022-09-29T10:57:16.430Z,1.90
2022-09-29T10:59:52.805Z,2.17
2022-09-29T11:02:39.990Z,1.65
2022-09-29T11:05:21.729Z,2.10
2022-09-29T11:07:54.922Z,2.22
2022-09-29T11:10:38.874Z,2.20
2022-09-29T11:13:20.381Z,1.23
2022-09-29T11:15:53.019Z,1.60
2022-09-29T11:18:35.493Z,1.58
2022-09-29T11:21:31.144Z,1.40
2022-09-29T11:24:38.457Z,1.50
2022-09-29T11:27:19.826Z,1.63
2022-09-29T11:30:06.620Z,1.50
2022-09-29T11:32:54.459Z,1.40
2022-09-29T11:35:43.521Z,1.85
2022-09-29T11:38:35.578Z,1.20
2022-09-29T11:42:14.841Z,1.23
2022-09-29T11:45:00.561Z,1.58
2022-09-29T11:48:27.309Z,1.30
2022-09-29T11:51:34.483Z,1.40
2022-09-29T11:54:30.400Z,1.10
2022-09-29T11:58:07.143Z,1.10
2022-09-29T12:01:01.959Z,1.40
2022-09-29T12:03:48.192Z,1.48
2022-09-29T12:06:52.127Z,1.50
2022-09-29T12:09:30.465Z,1.63
2022-09-29T12:12:24.089Z,1.73
2022-09-29T12:15:40.110Z,1.83
2022-09-29T12:18:21.125Z,1.50
2022-09-29T12:20:55.225Z,1.60
2022-09-29T12:23:32.258Z,2.03
2022-09-29T12:26:20.049Z,1.65
2022-09-29T12:29:28.916Z,1.63
2022-09-29T12:32:17.130Z,1.48
2022-09-29T12:35:02.948Z,1.40
2022-09-29T12:38:20.182Z,1.45
2022-09-29T12:41:21.202Z,1.33
2022-09-29T12:44:20.165Z,1.52
2022-09-29T12:47:00.489Z,1.55
2022-09-29T12:49:57.886Z,1.60
2022-09-29T12:52:46.567Z,1.20
2022-09-29T12:55:36.856Z,1.58
2022-09-29T12:58:22.915Z,1.08
2022-09-29T13:01:05.882Z,2.55
2022-09-29T13:04:05.849Z,1.40
2022-09-29T13:07:33.830Z,1.20
2022-09-29T13:10:31.041Z,1.00
2022-09-29T13:13:21.021Z,1.80
2022-09-29T13:16:18.598Z,1.00
2022-09-29T13:19:22.933Z,1.10
2022-09-29T13:22:33.694Z,0.95
2022-09-29T13:25:28.544Z,0.90
2022-09-29T13:28:21.786Z,0.85
2022-09-29T13:31:02.256Z,0.73
2022-09-29T13:33:35.477Z,0.40
2022-09-29T13:36:09.074Z,0.82
2022-09-29T13:38:53.351Z,1.00
2022-09-29T13:41:31.683Z,0.82
2022-09-29T13:44:26.967Z,0.90
2022-09-29T13:47:32.922Z,0.90
2022-09-29T13:50:49.765Z,0.82
2022-09-29T13:53:22.165Z,0.90
2022-09-29T13:56:03.501Z,0.70
2022-09-29T13:59:00.394Z,0.90
2022-09-29T14:01:38.273Z,0.80
2022-09-29T14:04:59.490Z,0.82
2022-09-29T14:07:41.030Z,0.90
2022-09-29T14:10:41.035Z,1.55
2022-09-29T14:13:32.084Z,0.70
2022-09-29T14:16:25.833Z,0.80
2022-09-29T14:19:24.589Z,0.90
2022-09-29T14:21:58.896Z,0.70
2022-09-29T14:24:34.344Z,0.90
2022-09-29T14:30:13.691Z,0.93
2022-09-29T14:32:59.107Z,0.88
2022-09-29T14:36:08.020Z,1.00
2022-09-29T14:39:02.802Z,0.93
2022-09-29T14:41:46.151Z,0.68
2022-09-29T14:44:54.982Z,0.80
2022-09-29T14:48:07.861Z,1.00
2022-09-29T14:51:10.908Z,0.98
2022-09-29T14:54:05.334Z,0.65
2022-09-29T14:56:51.854Z,0.70
2022-09-29T15:00:05.565Z,0.90
2022-09-29T15:02:45.825Z,0.70
2022-09-29T15:05:32.346Z,1.10
2022-09-29T15:08:31.634Z,0.98
2022-09-29T15:11:07.582Z,0.77
2022-09-29T15:13:40.030Z,1.20
2022-09-29T15:16:32.188Z,1.30
2022-09-29T15:19:40.787Z,1.08
2022-09-29T15:22:41.206Z,1.15
2022-09-29T15:25:29.284Z,1.60
2022-09-29T15:28:26.616Z,0.93
2022-09-29T15:31:06.976Z,1.33
2022-09-29T15:33:43.900Z,1.52
2022-09-29T15:36:24.739Z,2.00
2022-09-29T15:39:28.292Z,1.42
2022-09-29T15:42:12.279Z,1.25
2022-09-29T15:44:59.407Z,1.38
2022-09-29T15:47:40.530Z,1.73
2022-09-29T15:50:27.635Z,1.40
2022-09-29T15:53:03.456Z,1.42
2022-09-29T15:55:36.601Z,1.63
2022-09-29T15:58:43.758Z,1.35
2022-09-29T16:01:18.979Z,1.42
2022-09-29T16:04:17.461Z,1.73
2022-09-29T16:06:50.812Z,1.50
2022-09-29T16:09:24.083Z,1.60
2022-09-29T16:11:56.696Z,1.60
2022-09-29T16:14:30.976Z,1.95
2022-09-29T16:17:03.549Z,1.90
2022-09-29T16:19:37.042Z,1.75
2022-09-29T16:22:22.917Z,1.90
2022-09-29T16:25:18.470Z,2.28
2022-09-29T16:27:53.661Z,2.40
2022-09-29T16:30:38.704Z,2.20
2022-09-29T16:33:22.867Z,2.47
2022-09-29T16:36:09.312Z,2.30
2022-09-29T16:38:46.479Z,2.38
2022-09-29T16:41:18.879Z,2.22
2022-09-29T16:43:51.434Z,2.22
2022-09-29T16:46:25.492Z,2.25
2022-09-29T16:48:58.762Z,2.25
2022-09-29T16:51:39.476Z,2.83
2022-09-29T16:54:31.404Z,2.30
2022-09-29T16:57:25.257Z,2.15
2022-09-29T17:00:00.971Z,2.50
2022-09-29T17:02:33.565Z,2.22
2022-09-29T17:05:06.472Z,2.40
2022-09-29T17:07:44.058Z,2.60
2022-09-29T17:10:21.053Z,3.03
2022-09-29T17:12:55.245Z,2.50
2022-09-29T17:15:27.953Z,2.78
2022-09-29T17:18:00.564Z,2.53
2022-09-29T17:20:33.051Z,2.83
2022-09-29T17:23:06.318Z,3.35
2022-09-29T17:25:42.907Z,3.70
2022-09-29T17:28:24.473Z,3.63
2022-09-29T17:30:57.251Z,3.90
2022-09-29T17:33:31.029Z,4.00
2022-09-29T17:36:03.717Z,3.78
2022-09-29T17:38:36.651Z,4.10
2022-09-29T17:41:16.141Z,4.03
2022-09-29T17:43:48.759Z,4.22
2022-09-29T17:46:21.327Z,4.15
2022-09-29T17:48:53.845Z,4.05
2022-09-29T17:51:26.405Z,4.78
2022-09-29T17:54:00.340Z,3.97
2022-09-29T17:56:40.023Z,4.18
2022-09-29T17:59:14.326Z,4.43
2022-09-29T18:01:46.847Z,3.75
2022-09-29T18:04:19.710Z,4.25
2022-09-29T18:06:52.252Z,3.72
2022-09-29T18:09:24.774Z,4.30
2022-09-29T18:11:58.520Z,4.43
2022-09-29T18:14:35.283Z,4.60
2022-09-29T18:17:09.378Z,4.45
2022-09-29T18:19:41.839Z,3.80
2022-09-29T18:22:14.327Z,4.18
2022-09-29T18:24:46.980Z,4.72
2022-09-29T18:27:19.490Z,4.70
2022-09-29T18:29:53.378Z,5.75
2022-09-29T18:32:26.104Z,5.50
2022-09-29T18:34:59.444Z,5.72
2022-09-29T18:37:32.340Z,6.05
2022-09-29T18:40:05.947Z,6.65
2022-09-29T18:42:45.048Z,6.65
2022-09-29T18:45:24.947Z,7.07
2022-09-29T18:48:03.967Z,7.00
2022-09-29T18:50:47.698Z,6.85
2022-09-29T18:53:21.968Z,8.10
2022-09-29T18:56:03.166Z,13.48
2022-09-29T18:58:35.719Z,7.93
2022-09-29T19:01:15.566Z,9.77
2022-09-29T19:03:48.159Z,10.95
2022-09-29T19:06:21.407Z,38.42
2022-09-29T19:08:56.216Z,6.70
2022-09-29T19:11:28.863Z,7.90
2022-09-29T19:14:03.653Z,7.55
2022-09-29T19:16:37.095Z,7.25
2022-09-29T19:19:10.383Z,7.43
2022-09-29T19:21:43.461Z,9.65
2022-09-29T19:24:17.824Z,7.93
2022-09-29T19:26:51.323Z,7.03
2022-09-29T19:29:23.899Z,8.43
2022-09-29T19:31:56.484Z,7.47
2022-09-29T19:34:33.151Z,7.28
2022-09-29T19:37:06.202Z,7.18
2022-09-29T19:39:38.754Z,6.47
2022-09-29T19:42:11.653Z,7.43
2022-09-29T19:44:44.235Z,7.15
2022-09-29T19:47:17.754Z,7.75
2022-09-29T19:50:10.240Z,7.85
2022-09-29T19:52:42.933Z,7.97
2022-09-29T19:55:15.654Z,7.97
2022-09-29T19:57:48.542Z,7.97
2022-09-29T20:00:21.669Z,8.43
2022-09-29T20:02:54.291Z,8.10
2022-09-29T20:05:26.988Z,6.97
2022-09-29T20:07:59.543Z,7.18
2022-09-29T20:10:32.952Z,8.70
2022-09-29T20:13:05.511Z,9.07
2022-09-29T20:15:44.858Z,10.25
2022-09-29T20:18:18.119Z,10.90
2022-09-29T20:20:52.305Z,9.45
2022-09-29T20:23:25.016Z,8.77
2022-09-29T20:26:00.851Z,8.55
2022-09-29T20:28:33.337Z,8.98
2022-09-29T20:31:07.968Z,8.40
2022-09-29T20:33:42.786Z,8.40
2022-09-29T20:36:16.635Z,8.70
2022-09-29T20:38:50.764Z,8.80
2022-09-29T20:41:23.940Z,8.73
2022-09-29T20:43:57.807Z,9.68
2022-09-29T20:46:31.091Z,11.68
2022-09-29T20:49:04.903Z,10.05
2022-09-29T20:51:38.231Z,10.10
2022-09-29T20:54:13.105Z,10.10
2022-09-29T20:56:45.874Z,10.77
2022-09-29T20:59:22.779Z,9.32
2022-09-29T21:01:56.963Z,10.02
2022-09-29T21:04:29.750Z,10.07
2022-09-29T21:07:02.339Z,9.52
2022-09-29T21:09:34.958Z,9.00
2022-09-29T21:12:07.501Z,8.38
2022-09-29T21:14:40.213Z,7.07
2022-09-29T21:17:12.754Z,7.15
2022-09-29T21:19:45.306Z,7.20
2022-09-29T21:22:17.786Z,6.80
2022-09-29T21:24:50.434Z,5.82
2022-09-29T21:27:22.921Z,5.88
2022-09-29T21:29:55.463Z,5.35
2022-09-29T21:32:29.119Z,5.68
2022-09-29T21:35:03.728Z,6.22
2022-09-29T21:37:36.225Z,6.20
2022-09-29T21:40:09.348Z,6.80
2022-09-29T21:42:41.881Z,6.90
2022-09-29T21:45:14.410Z,6.85
2022-09-29T21:48:05.485Z,6.38
2022-09-29T21:50:37.994Z,6.95
2022-09-29T21:53:11.759Z,5.93
2022-09-29T21:55:44.227Z,6.38
2022-09-29T21:58:16.715Z,7.30
2022-09-29T22:00:49.218Z,8.23
2022-09-29T22:03:22.536Z,6.10
2022-09-29T22:05:55.043Z,6.07
2022-09-29T22:08:30.139Z,6.20
2022-09-29T22:11:03.224Z,5.82
2022-09-29T22:13:36.751Z,4.20
2022-09-29T22:16:13.832Z,4.90
2022-09-29T22:18:56.235Z,5.75
2022-09-29T22:21:39.917Z,5.40
2022-09-29T22:24:12.729Z,5.65
2022-09-29T22:26:45.245Z,5.90
2022-09-29T22:29:17.789Z,5.90
2022-09-29T22:31:50.725Z,6.05
2022-09-29T22:34:23.335Z,5.78
2022-09-29T22:36:55.829Z,5.88
2022-09-29T22:39:28.326Z,6.47
2022-09-29T22:42:01.214Z,6.93
2022-09-29T22:44:33.702Z,6.95
2022-09-29T22:47:06.493Z,7.28
2022-09-29T22:49:38.999Z,6.70
2022-09-29T22:52:11.484Z,7.15
2022-09-29T22:54:44.460Z,7.38
2022-09-29T22:57:16.947Z,7.45
2022-09-29T22:59:49.480Z,7.97
2022-09-29T23:02:22.044Z,7.30
2022-09-29T23:04:54.787Z,8.00
2022-09-29T23:07:27.365Z,6.57
2022-09-29T23:09:59.910Z,6.25
2022-09-29T23:12:32.598Z,6.45
2022-09-29T23:15:05.830Z,6.32
2022-09-29T23:17:38.345Z,6.07
2022-09-29T23:22:43.501Z,6.22
2022-09-29T23:25:16.211Z,5.40
2022-09-29T23:27:48.738Z,5.45
2022-09-29T23:30:21.224Z,4.55
2022-09-29T23:32:54.471Z,5.32
2022-09-29T23:35:26.950Z,6.03
2022-09-29T23:38:17.992Z,6.00
2022-09-29T23:40:52.666Z,5.47
2022-09-29T23:43:25.262Z,4.75
2022-09-29T23:45:57.753Z,5.38
2022-09-29T23:48:31.405Z,4.97
2022-09-29T23:51:04.242Z,5.63
2022-09-29T23:53:37.098Z,5.80
2022-09-29T23:56:09.620Z,5.07
2022-09-29T23:58:43.070Z,4.78
